Time;durP1;ratioP1;P1;durP2;ratioP2;P2;SDS_P1;SDS_P2;PMS_P1;PMS_P2;Temp;Humidity;BMP_temperature;BMP_pressure;BME280_temperature;BME280_humidity;BME280_pressure;Samples;Min_cycle;Max_cycle;Signal;HPM_P1;HPM_P2
2021/11/12 00:02:08;;;;;;;14.18;7.17;;;;;;;4.02;67.14;100881.31;1709088;82;21016;-60
2021/11/12 00:12:44;;;;;;;15.70;8.10;;;;;;;3.99;67.30;100871.50;1674158;84;20932;-63
2021/11/12 00:14:26;;;;;;;13.68;7.58;;;;;;;3.99;67.23;100867.05;1668106;84;21835;-60
2021/11/12 00:16:54;;;;;;;14.43;7.33;;;;;;;4.00;67.16;100867.87;1675001;84;21083;-61
2021/11/12 00:19:21;;;;;;;15.28;7.40;;;;;;;3.98;67.18;100863.23;1679791;84;20959;-60
2021/11/12 00:21:47;;;;;;;16.55;8.05;;;;;;;3.96;67.12;100866.05;1675386;84;20948;-59
2021/11/12 00:24:14;;;;;;;17.15;7.65;;;;;;;3.94;67.08;100855.26;1675300;84;20996;-61
2021/11/12 00:26:40;;;;;;;15.68;7.87;;;;;;;3.91;67.18;100854.26;1675862;84;21169;-60
2021/11/12 00:29:10;;;;;;;16.85;8.38;;;;;;;3.90;67.19;100859.22;1677626;84;21011;-59
2021/11/12 00:32:21;;;;;;;13.68;8.23;;;;;;;3.88;67.26;100855.41;1676841;84;21027;-60
2021/11/12 00:36:46;;;;;;;20.30;7.53;;;;;;;3.85;67.47;100850.43;1676615;84;21023;-60
2021/11/12 00:39:18;;;;;;;21.05;9.23;;;;;;;3.83;67.55;100845.80;1675675;84;21189;-60
2021/11/12 00:41:42;;;;;;;23.27;8.45;;;;;;;3.82;67.61;100838.82;1676006;84;20999;-63
2021/11/12 00:44:33;;;;;;;17.12;8.33;;;;;;;3.81;67.68;100834.02;1676090;84;20999;-61
2021/11/12 00:47:19;;;;;;;18.55;7.80;;;;;;;3.79;67.72;100833.84;1677234;84;20972;-60
2021/11/12 00:49:38;;;;;;;17.20;8.55;;;;;;;3.72;67.89;100833.64;1679060;84;21032;-63
2021/11/12 00:52:11;;;;;;;15.88;8.05;;;;;;;3.70;68.00;100836.15;1678247;84;21166;-61
2021/11/12 00:54:31;;;;;;;15.90;8.05;;;;;;;3.68;68.09;100833.16;1676804;84;20979;-62
2021/11/12 00:56:58;;;;;;;13.98;7.05;;;;;;;3.69;68.21;100831.32;1675310;84;20972;-60
2021/11/12 00:59:25;;;;;;;16.85;7.22;;;;;;;3.70;68.23;100827.69;1675016;84;21064;-61
2021/11/12 01:01:52;;;;;;;15.53;7.50;;;;;;;3.71;68.21;100824.05;1675755;84;20995;-61
2021/11/12 01:04:20;;;;;;;16.75;7.42;;;;;;;3.72;68.25;100820.89;1678491;84;21152;-60
2021/11/12 01:06:48;;;;;;;15.32;7.40;;;;;;;3.74;68.23;100821.07;1676848;84;20976;-62
2021/11/12 01:09:18;;;;;;;15.88;7.35;;;;;;;3.74;68.15;100813.12;1677630;84;21079;-62
2021/11/12 01:11:46;;;;;;;18.77;7.55;;;;;;;3.73;68.13;100814.61;1706044;82;21545;-61
2021/11/12 01:14:20;;;;;;;15.48;7.58;;;;;;;3.70;68.13;100812.28;1714402;83;21463;-60
2021/11/12 01:16:48;;;;;;;17.70;7.70;;;;;;;3.67;68.16;100815.57;1708605;83;21149;-60
2021/11/12 01:19:15;;;;;;;15.93;8.20;;;;;;;3.66;68.22;100812.58;1712862;83;20971;-61
2021/11/12 01:21:42;;;;;;;17.02;7.70;;;;;;;3.66;68.25;100808.59;1710740;83;21058;-61
2021/11/12 01:24:09;;;;;;;15.45;7.47;;;;;;;3.67;68.28;100801.49;1710440;83;20972;-60
2021/11/12 01:26:35;;;;;;;14.15;7.22;;;;;;;3.66;68.23;100802.48;1711048;83;20969;-60
2021/11/12 01:29:03;;;;;;;13.75;7.20;;;;;;;3.66;68.20;100802.48;1713755;83;21162;-60
2021/11/12 01:31:30;;;;;;;13.70;7.75;;;;;;;3.66;68.25;100795.34;1711079;83;20937;-62
2021/11/12 01:34:06;;;;;;;19.70;7.33;;;;;;;3.67;68.20;100789.05;1712216;83;21039;-60
2021/11/12 01:36:32;;;;;;;13.78;6.87;;;;;;;3.68;68.21;100793.37;1708582;82;21515;-60
2021/11/12 01:39:04;;;;;;;13.30;7.08;;;;;;;3.71;68.21;100785.59;1710499;83;20954;-62
2021/11/12 01:41:31;;;;;;;18.20;7.47;;;;;;;3.73;68.14;100786.25;1714264;83;21157;-62
2021/11/12 01:43:58;;;;;;;11.40;7.05;;;;;;;3.72;68.15;100779.79;1707923;83;20896;-61
2021/11/12 01:52:07;;;;;;;14.13;6.87;;;;;;;3.71;68.24;100777.64;1685760;83;21692;-58
2021/11/12 01:59:12;;;;;;;13.25;7.00;;;;;;;3.67;68.22;100781.09;1711605;83;20957;-61
2021/11/12 02:01:46;;;;;;;15.18;7.12;;;;;;;3.64;68.33;100776.63;1710082;83;20940;-61
2021/11/12 02:04:16;;;;;;;11.68;6.90;;;;;;;3.61;68.45;100776.45;1708872;83;20979;-62
2021/11/12 02:06:45;;;;;;;12.33;6.37;;;;;;;3.60;68.53;100768.16;1712833;83;21126;-63
2021/11/12 02:09:17;;;;;;;12.70;6.80;;;;;;;3.62;68.55;100770.64;1712050;83;20971;-64
2021/11/12 02:11:45;;;;;;;12.82;7.35;;;;;;;3.63;68.54;100770.98;1721418;82;21540;-58
2021/11/12 02:14:14;;;;;;;17.17;6.95;;;;;;;3.62;68.58;100765.34;1723025;82;21020;-59
2021/11/12 02:16:47;;;;;;;13.62;7.28;;;;;;;3.63;68.57;100762.52;1720152;82;20961;-60
2021/11/12 02:19:14;;;;;;;16.67;7.80;;;;;;;3.61;68.52;100761.87;1717766;82;21355;-59
2021/11/12 02:22:00;;;;;;;17.67;7.58;;;;;;;3.57;68.53;100755.73;1717092;82;20983;-60
2021/11/12 02:24:21;;;;;;;14.83;6.90;;;;;;;3.53;68.64;100754.39;1721036;82;20932;-61
2021/11/12 02:26:55;;;;;;;12.43;7.22;;;;;;;3.54;68.66;100752.08;1719440;82;21056;-61
2021/11/12 02:29:16;;;;;;;16.42;7.22;;;;;;;3.51;68.73;100755.87;1718682;82;21156;-62
2021/11/12 02:31:44;;;;;;;21.75;7.42;;;;;;;3.50;68.77;100749.77;1718334;82;21323;-62
2021/11/12 02:34:12;;;;;;;14.20;7.58;;;;;;;3.50;68.83;100750.23;1671410;85;20850;-60
2021/11/12 02:36:39;;;;;;;15.15;8.53;;;;;;;3.51;68.82;100752.72;1680777;84;21080;-61
2021/11/12 02:39:09;;;;;;;12.80;6.92;;;;;;;3.49;68.74;100752.58;1680167;84;20936;-61
2021/11/12 02:41:36;;;;;;;14.05;7.78;;;;;;;3.45;68.80;100744.10;1677728;84;21501;-62
2021/11/12 02:44:05;;;;;;;15.65;7.53;;;;;;;3.45;68.83;100744.61;1679771;84;21143;-61
2021/11/12 02:46:31;;;;;;;15.35;7.83;;;;;;;3.43;68.85;100739.95;1680354;84;21043;-59
2021/11/12 02:48:58;;;;;;;13.38;7.37;;;;;;;3.42;68.87;100736.98;1678760;84;20987;-59
2021/11/12 02:51:30;;;;;;;15.55;7.20;;;;;;;3.40;68.91;100739.80;1683580;84;20968;-59
2021/11/12 02:53:58;;;;;;;15.80;7.87;;;;;;;3.42;68.94;100738.31;1679264;84;20939;-60
2021/11/12 02:56:30;;;;;;;17.98;8.25;;;;;;;3.42;68.81;100734.33;1679797;84;21443;-60
2021/11/12 02:59:07;;;;;;;15.98;7.87;;;;;;;3.40;68.77;100734.49;1682763;84;20963;-60
2021/11/12 03:01:37;;;;;;;17.02;7.62;;;;;;;3.36;68.77;100731.83;1680222;84;21066;-59
2021/11/12 03:04:05;;;;;;;14.95;7.85;;;;;;;3.33;68.86;100730.32;1678684;84;21079;-61
2021/11/12 03:06:34;;;;;;;14.83;8.03;;;;;;;3.32;68.86;100726.00;1680901;84;21137;-58
2021/11/12 03:09:05;;;;;;;15.72;8.03;;;;;;;3.32;68.94;100723.86;1679380;84;21131;-59
2021/11/12 04:17:29;;;;;;;13.95;7.60;;;;;;;2.98;69.54;100680.53;1785906;79;21158;-59
2021/11/12 05:46:20;;;;;;;13.93;8.05;;;;;;;5.09;65.52;100711.71;1764484;79;20872;-61
2021/11/12 05:51:39;;;;;;;17.15;8.23;;;;;;;6.28;62.88;100720.20;1761668;81;21056;-63
2021/11/12 05:56:51;;;;;;;18.75;9.45;;;;;;;7.55;59.17;100717.00;1766017;79;20991;-61
2021/11/12 05:59:18;;;;;;;16.32;8.98;;;;;;;8.14;57.31;100711.06;1766811;81;21029;-64
2021/11/12 06:01:45;;;;;;;17.15;8.73;;;;;;;8.67;55.69;100715.48;1766654;80;20923;-62
2021/11/12 06:04:12;;;;;;;15.70;7.90;;;;;;;9.13;54.24;100715.38;1766884;81;21106;-60
2021/11/12 06:06:40;;;;;;;14.35;8.00;;;;;;;9.49;52.90;100708.89;1766364;79;20935;-65
2021/11/12 06:09:07;;;;;;;20.45;8.58;;;;;;;9.65;51.83;100707.16;1766660;81;21018;-60
2021/11/12 06:11:34;;;;;;;16.73;8.43;;;;;;;9.54;51.41;100706.94;1779694;80;21749;-60
2021/11/12 06:14:04;;;;;;;13.70;8.13;;;;;;;9.33;51.56;100707.41;1785831;80;20831;-59
2021/11/12 06:16:31;;;;;;;19.03;8.60;;;;;;;9.18;51.68;100700.06;1786572;80;21139;-60
2021/11/12 06:18:58;;;;;;;15.10;8.63;;;;;;;9.00;52.00;100701.96;1785664;80;21464;-61
2021/11/12 06:21:26;;;;;;;14.83;8.38;;;;;;;8.85;52.32;100705.59;1785871;80;21551;-60
2021/11/12 06:23:53;;;;;;;16.75;8.83;;;;;;;8.71;52.53;100706.54;1785855;80;21548;-63
2021/11/12 06:26:19;;;;;;;16.35;9.13;;;;;;;8.57;52.89;100704.31;1785874;80;21488;-60
2021/11/12 06:28:46;;;;;;;16.20;9.03;;;;;;;8.40;53.32;100689.88;1785739;80;21780;-57
2021/11/12 06:31:13;;;;;;;16.12;8.95;;;;;;;8.24;53.80;100693.70;1785654;80;20923;-59
2021/11/12 06:33:40;;;;;;;15.98;9.13;;;;;;;8.06;54.31;100687.48;1785788;80;20951;-62
2021/11/12 06:36:07;;;;;;;16.60;9.75;;;;;;;7.92;54.90;100685.75;1786009;80;21499;-61
2021/11/12 06:38:36;;;;;;;18.32;9.28;;;;;;;7.82;55.39;100691.92;1785871;80;20914;-60
2021/11/12 06:41:07;;;;;;;;;;;;;;;7.70;55.82;100695.09;1788582;78;21139;-60
2021/11/12 06:43:47;;;;;;;20.68;8.53;;;;;;;7.62;56.32;100697.88;1785805;80;20109;-59
2021/11/12 06:51:34;;;;;;;19.45;9.70;;;;;;;7.56;57.31;100689.83;1785783;80;21011;-58
2021/11/12 06:54:01;;;;;;;23.35;11.88;;;;;;;7.60;57.31;100690.59;1785946;80;21839;-63
2021/11/12 06:56:28;;;;;;;22.27;10.40;;;;;;;7.64;57.29;100691.02;1785918;80;20934;-61
2021/11/12 06:58:54;;;;;;;22.30;10.95;;;;;;;7.65;57.33;100695.34;1785817;80;20931;-63
2021/11/12 07:01:21;;;;;;;19.20;9.65;;;;;;;7.65;57.47;100690.83;1785857;80;20971;-62
2021/11/12 07:03:48;;;;;;;24.32;11.38;;;;;;;7.68;57.54;100693.11;1785981;80;21519;-64
2021/11/12 07:06:18;;;;;;;21.00;10.70;;;;;;;7.75;57.55;100691.85;1785785;80;21048;-63
2021/11/12 07:08:45;;;;;;;21.33;10.05;;;;;;;7.81;57.37;100691.08;1785683;78;20995;-62
2021/11/12 07:11:12;;;;;;;21.25;10.93;;;;;;;7.86;57.26;100680.67;1781404;79;21510;-62
2021/11/12 07:13:39;;;;;;;18.12;10.80;;;;;;;7.91;57.26;100677.94;1774669;80;20971;-64
2021/11/12 07:16:05;;;;;;;27.82;12.18;;;;;;;7.98;57.17;100676.97;1774886;79;20891;-62
2021/11/12 07:18:32;;;;;;;23.05;12.18;;;;;;;8.04;57.17;100680.70;1775153;80;21758;-62
2021/11/12 07:20:58;;;;;;;20.08;10.85;;;;;;;8.11;57.13;100678.07;1775781;80;21449;-62
2021/11/12 07:23:27;;;;;;;24.80;11.18;;;;;;;8.15;57.13;100672.14;1774974;80;20965;-60
2021/11/12 07:25:54;;;;;;;24.95;10.35;;;;;;;8.22;57.14;100673.53;1775616;80;20884;-60
2021/11/12 07:28:24;;;;;;;22.15;12.18;;;;;;;8.28;60.31;100674.61;1775469;80;20959;-60
2021/11/12 07:30:53;;;;;;;25.37;13.13;;;;;;;8.39;60.46;100676.72;1775556;80;21113;-61
2021/11/12 07:33:20;;;;;;;20.27;12.37;;;;;;;8.44;60.11;100679.67;1774593;79;21037;-60
2021/11/12 07:35:53;;;;;;;23.15;12.95;;;;;;;8.46;59.86;100675.47;1777079;79;21016;-61
2021/11/12 07:38:21;;;;;;;;;;;;;;;8.42;60.15;100662.47;1774171;79;20953;-61
2021/11/12 07:45:58;;;;;;;25.40;13.45;;;;;;;8.42;60.02;100642.44;1775409;80;20970;-60
2021/11/12 07:48:23;;;;;;;20.72;12.90;;;;;;;8.46;59.78;100654.91;1774946;80;21571;-60
2021/11/12 07:50:50;;;;;;;20.85;13.25;;;;;;;8.46;59.87;100648.75;1772099;80;20915;-61
2021/11/12 07:53:16;;;;;;;24.30;12.98;;;;;;;8.47;59.56;100660.57;1772146;80;21446;-59
2021/11/12 07:55:43;;;;;;;23.15;13.95;;;;;;;8.44;59.29;100662.30;1775886;80;21257;-61
2021/11/12 07:58:11;;;;;;;25.40;13.87;;;;;;;8.42;59.25;100664.30;1775522;80;20929;-60
2021/11/12 08:00:38;;;;;;;25.95;13.90;;;;;;;8.44;60.13;100660.97;1775293;80;21743;-60
2021/11/12 08:03:04;;;;;;;25.70;13.83;;;;;;;8.51;60.20;100666.33;1775535;80;21424;-60
2021/11/12 08:05:36;;;;;;;29.60;15.03;;;;;;;8.54;60.48;100656.09;1775346;80;20970;-60
2021/11/12 08:08:05;;;;;;;;;;;;;;;8.59;60.43;100652.30;1777506;79;21169;-60
2021/11/12 08:10:32;;;;;;;21.30;13.00;;;;;;;8.62;59.82;100653.76;1774757;80;21316;-61
2021/11/12 08:13:04;;;;;;;27.05;13.72;;;;;;;8.62;59.57;100643.59;1785508;79;20954;-58
2021/11/12 08:15:37;;;;;;;35.45;15.25;;;;;;;8.66;59.50;100649.67;1785049;80;20966;-60
2021/11/12 08:18:12;;;;;;;38.73;20.23;;;;;;;8.69;59.38;100638.58;1784262;80;20986;-62
2021/11/12 08:20:39;;;;;;;36.70;18.62;;;;;;;8.72;59.56;100638.70;1784688;80;21073;-63
2021/11/12 08:23:11;;;;;;;30.23;17.62;;;;;;;8.76;59.25;100638.10;1785058;80;20977;-63
2021/11/12 08:25:43;;;;;;;32.00;15.98;;;;;;;8.79;58.93;100640.89;1781487;79;20986;-62
2021/11/12 08:36:07;;;;;;;32.65;15.43;;;;;;;8.88;58.82;100640.21;1782905;80;20927;-63
2021/11/12 08:43:49;;;;;;;30.08;14.83;;;;;;;8.91;59.08;100636.61;1779051;80;21036;-63
2021/11/12 08:48:52;;;;;;;27.27;15.68;;;;;;;8.96;58.52;100630.66;1786024;79;20891;-62
2021/11/12 08:51:13;;;;;;;31.23;15.43;;;;;;;8.97;58.96;100622.95;1783430;80;20981;-61
2021/11/12 08:53:39;;;;;;;24.45;14.80;;;;;;;9.01;59.01;100630.89;1785158;80;21141;-62
2021/11/12 08:56:12;;;;;;;25.43;15.10;;;;;;;9.06;58.97;100626.27;1785490;79;20943;-62
2021/11/12 08:58:35;;;;;;;27.70;15.55;;;;;;;9.10;59.06;100624.84;1785074;80;21488;-62
2021/11/12 09:01:02;;;;;;;28.77;16.12;;;;;;;9.14;58.71;100616.70;1785653;78;21653;-63
2021/11/12 09:03:30;;;;;;;24.25;15.60;;;;;;;9.19;58.92;100613.45;1785224;79;21086;-63
2021/11/12 09:05:58;;;;;;;25.75;15.53;;;;;;;9.21;58.26;100616.21;1782889;80;20974;-62
2021/11/12 09:08:24;;;;;;;26.73;16.57;;;;;;;9.18;57.93;100620.63;1785787;79;20986;-62
2021/11/12 09:10:53;;;;;;;26.00;15.00;;;;;;;9.19;58.22;100623.63;1784862;80;20943;-62
2021/11/12 09:13:23;;;;;;;31.62;15.25;;;;;;;9.22;58.74;100620.55;1766376;81;20959;-62
2021/11/12 09:15:54;;;;;;;24.72;15.03;;;;;;;9.27;58.37;100614.58;1766522;81;20979;-61
2021/11/12 09:18:23;;;;;;;29.02;16.62;;;;;;;9.27;57.66;100614.05;1766460;79;21031;-62
2021/11/12 09:20:51;;;;;;;29.65;15.95;;;;;;;9.25;57.85;100610.77;1766641;81;21032;-61
2021/11/12 09:23:18;;;;;;;29.42;16.42;;;;;;;9.25;58.20;100608.62;1763673;81;21147;-62
2021/11/12 09:25:45;;;;;;;26.57;15.90;;;;;;;9.28;58.68;100614.90;1766450;81;20963;-63
2021/11/12 09:28:13;;;;;;;24.80;15.35;;;;;;;9.31;58.32;100610.48;1766710;81;21623;-63
2021/11/12 09:30:39;;;;;;;26.48;15.68;;;;;;;9.34;57.82;100614.08;1766404;80;20920;-62
2021/11/12 09:33:07;;;;;;;26.37;15.95;;;;;;;9.36;58.18;100612.02;1766680;80;21575;-60
2021/11/12 09:35:34;;;;;;;36.13;17.60;;;;;;;9.37;58.43;100610.18;1764159;81;21910;-62
2021/11/12 09:38:02;;;;;;;26.60;16.97;;;;;;;9.39;57.96;100607.62;1761497;79;20975;-62
2021/11/12 09:40:29;;;;;;;28.42;16.12;;;;;;;9.44;57.75;100612.35;1766736;81;21049;-62
2021/11/12 09:42:56;;;;;;;29.55;17.70;;;;;;;9.49;58.03;100609.87;1766904;81;20979;-62
2021/11/12 09:45:24;;;;;;;27.32;17.05;;;;;;;9.54;57.89;100609.25;1743132;81;21533;-62
2021/11/12 09:47:57;;;;;;;32.88;17.82;;;;;;;9.57;57.82;100610.17;1766781;81;21099;-63
2021/11/12 09:50:23;;;;;;;38.53;17.92;;;;;;;9.59;58.29;100609.48;1765597;81;20971;-65
2021/11/12 09:52:50;;;;;;;30.23;17.77;;;;;;;9.62;57.98;100601.84;1765891;81;20974;-63
2021/11/12 09:55:19;;;;;;;31.40;17.92;;;;;;;9.63;57.90;100602.16;1766083;81;21513;-61
2021/11/12 09:57:46;;;;;;;29.95;18.75;;;;;;;9.67;57.61;100609.78;1728301;81;21595;-62
2021/11/12 10:00:16;;;;;;;31.35;17.42;;;;;;;9.68;57.40;100601.54;1766471;81;21919;-61
2021/11/12 10:02:45;;;;;;;33.45;18.07;;;;;;;9.70;57.57;100595.48;1766671;79;22063;-61
2021/11/12 10:05:13;;;;;;;36.53;21.42;;;;;;;9.73;57.58;100588.87;1766478;81;20958;-61
2021/11/12 10:07:40;;;;;;;36.75;22.52;;;;;;;9.75;57.31;100582.81;1766422;81;21030;-63
2021/11/12 10:10:11;;;;;;;39.65;21.40;;;;;;;9.72;57.32;100589.39;1766477;81;21082;-63
2021/11/12 10:12:47;;;;;;;35.95;22.00;;;;;;;9.69;57.08;100579.10;1773976;80;21200;-62
2021/11/12 10:15:25;;;;;;;36.28;21.90;;;;;;;9.60;57.32;100581.69;1781234;80;20974;-61
2021/11/12 10:17:52;;;;;;;34.15;22.27;;;;;;;9.57;57.50;100576.22;1783306;80;20994;-60
2021/11/12 10:20:22;;;;;;;35.83;21.68;;;;;;;9.58;57.54;100569.01;1783038;80;21537;-61
2021/11/12 10:22:51;;;;;;;34.20;20.70;;;;;;;9.58;57.00;100574.36;1783263;80;20983;-62
2021/11/12 10:25:18;;;;;;;31.95;19.73;;;;;;;9.55;56.91;100573.44;1780377;80;21084;-61
2021/11/12 10:27:51;;;;;;;36.90;21.55;;;;;;;9.50;57.00;100574.06;1783140;80;22039;-61
2021/11/12 10:30:24;;;;;;;33.55;19.73;;;;;;;9.51;57.23;100576.21;1783213;80;20974;-62
2021/11/12 10:32:57;;;;;;;35.15;20.62;;;;;;;9.55;57.10;100577.45;1783384;80;21036;-63
2021/11/12 10:35:30;;;;;;;39.25;20.43;;;;;;;9.57;57.12;100574.89;1783091;80;21560;-63
2021/11/12 10:38:10;;;;;;;30.97;19.62;;;;;;;9.61;57.11;100572.11;1782864;80;21505;-62
2021/11/12 10:40:37;;;;;;;32.90;18.95;;;;;;;9.66;56.70;100568.81;1781984;80;21576;-63
2021/11/12 10:43:03;;;;;;;34.50;19.07;;;;;;;9.67;56.06;100569.09;1782658;80;20993;-60
2021/11/12 10:45:34;;;;;;;32.50;19.17;;;;;;;9.63;56.09;100566.02;1783208;79;21477;-62
2021/11/12 10:48:03;;;;;;;31.33;18.75;;;;;;;9.60;56.04;100572.32;1782780;80;21002;-62
2021/11/12 10:50:34;;;;;;;33.38;20.60;;;;;;;9.59;56.10;100580.03;1779180;80;21139;-62
2021/11/12 10:53:09;;;;;;;36.17;20.82;;;;;;;9.59;56.27;100570.66;1783091;80;21048;-61
2021/11/12 10:55:37;;;;;;;28.45;18.12;;;;;;;9.60;56.24;100569.12;1754986;80;21539;-62
2021/11/12 10:58:07;;;;;;;34.23;18.52;;;;;;;9.62;56.20;100576.94;1783090;80;20982;-62
2021/11/12 11:00:42;;;;;;;30.48;19.10;;;;;;;9.67;56.03;100572.30;1779673;80;21556;-62
2021/11/12 11:03:10;;;;;;;31.93;20.17;;;;;;;9.70;55.85;100559.84;1780304;80;21142;-61
2021/11/12 11:05:46;;;;;;;32.38;18.75;;;;;;;9.71;55.89;100556.14;1780367;80;21025;-62
2021/11/12 11:08:20;;;;;;;33.50;19.17;;;;;;;9.73;55.79;100556.73;1781845;80;21089;-61
2021/11/12 11:10:54;;;;;;;32.95;18.37;;;;;;;9.77;55.85;100555.30;1783061;80;21085;-62
2021/11/12 11:13:33;;;;;;;33.75;19.62;;;;;;;9.82;55.21;100558.19;1779324;79;21034;-61
2021/11/12 11:16:02;;;;;;;32.93;19.00;;;;;;;9.83;55.23;100559.81;1781845;80;21160;-62
2021/11/12 11:18:32;;;;;;;;;;;;;;;9.85;55.15;100560.45;1783078;80;21539;-61
2021/11/12 11:21:11;;;;;;;30.55;17.37;;;;;;;9.88;55.21;100553.34;1782252;80;20437;-62
2021/11/12 11:24:03;;;;;;;36.17;18.92;;;;;;;9.93;55.32;100562.08;1782868;80;20919;-62
2021/11/12 11:26:49;;;;;;;34.90;20.43;;;;;;;9.95;55.32;100564.02;1781921;80;20959;-62
2021/11/12 11:29:22;;;;;;;34.98;20.02;;;;;;;9.97;55.42;100562.78;1782984;80;21149;-62
2021/11/12 11:31:50;;;;;;;37.17;21.42;;;;;;;10.03;54.78;100552.28;1782969;80;21003;-61
2021/11/12 11:34:18;;;;;;;35.87;21.70;;;;;;;10.00;54.86;100563.70;1780673;80;21009;-61
2021/11/12 11:36:45;;;;;;;38.58;21.17;;;;;;;10.04;54.92;100561.94;1783326;79;21034;-61
2021/11/12 11:39:15;;;;;;;34.40;20.85;;;;;;;10.03;54.76;100553.09;1782995;80;21089;-61
2021/11/12 11:41:45;;;;;;;38.42;22.10;;;;;;;10.00;54.94;100548.97;1783516;80;21874;-63
2021/11/12 11:44:23;;;;;;;44.75;24.32;;;;;;;10.03;55.70;100548.27;1781918;78;21022;-65
2021/11/12 11:46:50;;;;;;;38.08;20.72;;;;;;;10.13;55.33;100552.67;1782036;79;20998;-62
2021/11/12 11:49:22;;;;;;;35.92;20.88;;;;;;;10.20;54.99;100553.97;1752971;80;21548;-63
2021/11/12 11:52:01;;;;;;;34.35;21.07;;;;;;;10.25;54.67;100556.85;1779692;80;20978;-63
2021/11/12 11:54:34;;;;;;;36.45;21.97;;;;;;;10.23;54.79;100556.22;1778654;80;21188;-62
2021/11/12 11:57:14;;;;;;;35.75;20.72;;;;;;;10.20;54.99;100556.13;1740606;80;20954;-62
2021/11/12 11:59:41;;;;;;;38.40;21.00;;;;;;;10.21;54.88;100558.30;1712673;83;20900;-63
2021/11/12 12:02:18;;;;;;;45.40;21.68;;;;;;;10.21;54.90;100559.64;1738582;82;21065;-65
2021/11/12 12:04:56;;;;;;;35.33;20.27;;;;;;;10.22;55.12;100561.27;1788631;80;21097;-63
2021/11/12 12:07:54;;;;;;;35.33;21.65;;;;;;;10.25;55.25;100560.88;1788541;80;21063;-62
2021/11/12 12:10:25;;;;;;;38.88;22.40;;;;;;;10.27;55.10;100553.44;1788419;80;21003;-62
2021/11/12 12:12:58;;;;;;;44.95;21.20;;;;;;;10.30;55.14;100553.82;1781750;80;20951;-66
2021/11/12 12:15:30;;;;;;;37.63;21.50;;;;;;;10.33;55.24;100553.92;1774126;80;21022;-65
2021/11/12 12:18:15;;;;;;;38.98;23.00;;;;;;;10.39;54.95;100554.97;1774497;80;21040;-64
2021/11/12 12:21:09;;;;;;;36.65;22.00;;;;;;;10.47;54.77;100556.89;1773652;80;21149;-63
2021/11/12 12:35:06;;;;;;;35.25;21.12;;;;;;;10.69;54.14;100545.87;1773863;80;21110;-61
2021/11/12 12:43:22;;;;;;;37.15;19.90;;;;;;;10.43;54.44;100553.52;1775185;80;21529;-62
2021/11/12 13:25:45;;;;;;;39.53;20.02;;;;;;;9.82;54.26;100576.41;1791588;80;20970;-63
2021/11/12 13:28:28;;;;;;;32.50;18.82;;;;;;;9.81;54.33;100578.77;1791234;80;21049;-63
2021/11/12 13:31:09;;;;;;;39.25;21.75;;;;;;;9.77;54.50;100575.38;1789494;80;21121;-62
2021/11/12 13:33:51;;;;;;;37.90;20.20;;;;;;;9.72;54.73;100574.67;1789863;80;20926;-62
2021/11/12 13:36:28;;;;;;;35.88;21.27;;;;;;;9.69;54.87;100572.41;1789824;80;20993;-64
2021/11/12 13:39:04;;;;;;;36.20;20.77;;;;;;;9.68;55.06;100569.94;1791150;79;21014;-63
2021/11/12 13:41:42;;;;;;;39.75;20.77;;;;;;;9.67;55.21;100566.95;1788248;80;21076;-62
2021/11/12 13:44:13;;;;;;;36.70;21.50;;;;;;;9.69;55.66;100571.56;1788936;80;21165;-63
2021/11/12 13:46:55;;;;;;;38.83;21.97;;;;;;;9.72;55.70;100579.21;1787492;80;22028;-63
2021/11/12 13:49:37;;;;;;;37.10;21.80;;;;;;;9.72;55.43;100570.66;1787073;80;21053;-61
2021/11/12 13:52:14;;;;;;;37.78;21.17;;;;;;;9.73;55.50;100574.14;1749100;82;21514;-62
2021/11/12 13:54:45;;;;;;;42.23;22.95;;;;;;;9.74;55.49;100583.30;1751197;82;21066;-63
2021/11/12 13:57:20;;;;;;;41.60;22.45;;;;;;;9.74;55.57;100580.63;1737584;82;21117;-64
2021/11/12 13:59:58;;;;;;;38.30;22.60;;;;;;;9.77;55.90;100583.41;1737279;82;20988;-62
2021/11/12 14:02:28;;;;;;;38.20;22.73;;;;;;;9.79;55.72;100597.41;1737871;82;20887;-62
2021/11/12 14:05:12;;;;;;;39.80;22.35;;;;;;;9.79;55.65;100601.42;1737428;82;21006;-63
2021/11/12 14:07:39;;;;;;;47.40;24.23;;;;;;;9.74;55.75;100598.03;1735647;82;20994;-62
2021/11/12 14:10:09;;;;;;;39.15;22.77;;;;;;;9.68;55.85;100604.22;1737627;82;21143;-65
2021/11/12 14:12:36;;;;;;;39.03;22.52;;;;;;;9.61;55.98;100604.23;1736477;82;21041;-63
2021/11/12 14:15:20;;;;;;;37.30;21.40;;;;;;;9.57;56.09;100607.50;1738312;82;20891;-61
2021/11/12 14:18:04;;;;;;;40.90;21.80;;;;;;;9.49;56.30;100605.86;1738340;82;21026;-62
2021/11/12 14:20:23;;;;;;;36.33;20.68;;;;;;;9.41;56.68;100606.89;1724967;82;21579;-63
2021/11/12 14:22:54;;;;;;;39.95;20.80;;;;;;;9.39;56.95;100616.98;1738403;82;21972;-64
2021/11/12 14:28:16;;;;;;;42.65;23.47;;;;;;;9.38;57.33;100623.35;1652613;82;21070;-62
2021/11/12 14:33:29;;;;;;;45.17;24.35;;;;;;;9.43;57.60;100629.43;1738170;82;20993;-62
2021/11/12 14:38:32;;;;;;;52.00;26.82;;;;;;;9.53;58.83;100631.19;1738893;82;21469;-62
2021/11/12 14:46:31;;;;;;;44.38;23.32;;;;;;;9.65;58.35;100646.13;1737926;82;20986;-63
2021/11/12 14:52:02;;;;;;;48.28;22.40;;;;;;;9.70;58.58;100654.88;1739054;82;20926;-62
2021/11/12 14:54:44;;;;;;;38.20;21.37;;;;;;;9.73;59.08;100656.64;1737282;82;20922;-63
2021/11/12 14:59:53;;;;;;;39.40;22.10;;;;;;;9.76;58.68;100659.40;1738512;81;26725;-62
2021/11/12 15:02:19;;;;;;;43.17;23.12;;;;;;;9.77;59.03;100660.53;1738279;82;21103;-62
2021/11/12 15:04:46;;;;;;;43.28;23.12;;;;;;;9.77;58.92;100667.22;1738664;82;20847;-62
2021/11/12 15:07:15;;;;;;;37.85;21.80;;;;;;;9.79;58.85;100666.52;1738766;81;21610;-62
2021/11/12 15:09:42;;;;;;;43.95;22.42;;;;;;;9.81;58.62;100671.67;1738826;82;21002;-62
2021/11/12 15:12:10;;;;;;;36.55;21.73;;;;;;;9.81;58.99;100677.02;1738883;81;21013;-63
2021/11/12 15:14:43;;;;;;;38.75;21.85;;;;;;;9.80;58.73;100676.22;1724258;81;21114;-65
2021/11/12 15:17:07;;;;;;;41.50;22.37;;;;;;;9.82;59.24;100681.36;1721751;81;21474;-65
2021/11/12 15:19:37;;;;;;;44.08;21.52;;;;;;;9.83;59.09;100678.97;1724062;81;20951;-62
2021/11/12 15:22:25;;;;;;;42.80;20.95;;;;;;;9.82;58.80;100679.50;1777245;80;21018;-62
2021/11/12 15:32:28;;;;;;;40.30;20.97;;;;;;;9.82;58.66;100683.52;1777182;80;21050;-63
2021/11/12 15:35:03;;;;;;;42.70;22.07;;;;;;;9.82;58.60;100685.38;1777389;80;20951;-63
2021/11/12 15:37:32;;;;;;;35.48;21.33;;;;;;;9.80;58.78;100689.60;1776602;80;20896;-63
2021/11/12 15:40:01;;;;;;;35.30;21.55;;;;;;;9.80;59.14;100689.60;1774275;80;21226;-64
2021/11/12 15:44:53;;;;;;;37.55;22.22;;;;;;;9.84;59.04;100695.36;1777460;80;20999;-61
2021/11/12 15:47:24;;;;;;;42.53;22.60;;;;;;;9.87;59.08;100695.47;1777656;80;21056;-61
2021/11/12 15:50:04;;;;;;;40.00;23.22;;;;;;;9.88;59.13;100693.08;1772875;80;21014;-61
2021/11/12 15:52:26;;;;;;;37.83;21.93;;;;;;;9.88;59.29;100699.28;1774548;80;21177;-63
2021/11/12 16:07:40;;;;;;;38.00;23.73;;;;;;;9.91;59.48;100709.58;1720832;80;21073;-62
2021/11/12 16:10:24;;;;;;;40.43;23.85;;;;;;;9.92;59.68;100716.59;1771168;80;20896;-62
2021/11/12 16:12:43;;;;;;;45.03;25.40;;;;;;;9.92;59.65;100716.59;1771410;80;20994;-62
2021/11/12 16:15:16;;;;;;;39.88;24.18;;;;;;;9.92;59.59;100710.39;1783438;80;20935;-63
2021/11/12 16:25:21;;;;;;;45.28;25.82;;;;;;;9.78;59.49;100717.60;1784663;80;20938;-64
2021/11/12 16:27:52;;;;;;;43.13;24.60;;;;;;;9.70;59.63;100721.30;1782168;80;21038;-63
2021/11/12 16:30:21;;;;;;;42.55;24.75;;;;;;;9.65;59.74;100726.43;1785452;80;21143;-63
2021/11/12 16:32:55;;;;;;;42.83;24.20;;;;;;;9.60;59.83;100730.25;1785784;80;20943;-64
2021/11/12 16:35:25;;;;;;;40.52;24.57;;;;;;;9.54;59.93;100738.56;1785528;80;20892;-62
2021/11/12 16:37:56;;;;;;;39.73;24.10;;;;;;;9.49;59.89;100730.83;1782595;80;21521;-62
2021/11/12 16:40:29;;;;;;;39.73;23.32;;;;;;;9.36;59.92;100730.27;1785781;80;20939;-62
2021/11/12 16:48:07;;;;;;;41.70;24.00;;;;;;;9.02;60.57;100751.52;1785658;80;20982;-62
2021/11/12 16:50:46;;;;;;;39.83;24.35;;;;;;;8.92;60.84;100749.23;1781257;80;21021;-64